Time,TemperatureF,DewpointF,PressureIn,WindDirection,WindDirectionDegrees,WindSpeedMPH,WindSpeedGustMPH,Humidity,HourlyPrecipIn,Conditions,Clouds,dailyrainin,SoftwareType,DateUTC
2013-06-11 00:05:00,64.0,55.0,29.92,WSW,237,0.0,-999.0,72,-99.99,,,0.00,weatherlink.com 1.10,2013-06-11 07:05:00,
2013-06-11 00:20:00,63.7,55.0,29.92,WSW,237,0.0,-999.0,74,-99.99,,,0.00,weatherlink.com 1.10,2013-06-11 07:20:00,
2013-06-11 00:35:00,63.3,55.0,29.91,WSW,237,0.0,-999.0,73,-99.99,,,0.00,weatherlink.com 1.10,2013-06-11 07:35:00,
2013-06-11 00:50:00,62.4,54.0,29.91,WSW,237,0.0,-999.0,73,-99.99,,,0.00,weatherlink.com 1.10,2013-06-11 07:50:00,
2013-06-11 01:05:00,60.9,54.0,29.92,WSW,237,0.0,-999.0,78,-99.99,,,0.00,weatherlink.com 1.10,2013-06-11 08:05:00,
2013-06-11 01:20:00,60.9,54.0,29.92,WSW,237,0.0,-999.0,78,-99.99,,,0.00,weatherlink.com 1.10,2013-06-11 08:20:00,
2013-06-11 01:35:00,61.4,53.0,29.91,WSW,237,0.0,-999.0,75,-99.99,,,0.00,weatherlink.com 1.10,2013-06-11 08:35:00,
2013-06-11 01:50:00,61.7,54.0,29.91,WSW,237,0.0,-999.0,75,-99.99,,,0.00,weatherlink.com 1.10,2013-06-11 08:50:00,
2013-06-11 02:05:00,61.7,54.0,29.91,WSW,237,0.0,-999.0,76,-99.99,,,0.00,weatherlink.com 1.10,2013-06-11 09:05:00,
2013-06-11 02:20:00,60.8,54.0,29.91,WSW,237,0.0,-999.0,77,-99.99,,,0.00,weatherlink.com 1.10,2013-06-11 09:20:00,
2013-06-11 02:35:00,60.0,54.0,29.91,WSW,237,0.0,-999.0,80,-99.99,,,0.00,weatherlink.com 1.10,2013-06-11 09:35:00,
2013-06-11 02:50:00,59.8,54.0,29.91,WSW,237,0.0,-999.0,82,-99.99,,,0.00,weatherlink.com 1.10,2013-06-11 09:50:00,
2013-06-11 03:05:00,59.8,54.0,29.91,WSW,237,0.0,-999.0,82,-99.99,,,0.00,weatherlink.com 1.10,2013-06-11 10:05:00,
2013-06-11 03:20:00,60.0,54.0,29.91,WSW,237,0.0,-999.0,81,-99.99,,,0.00,weatherlink.com 1.10,2013-06-11 10:20:00,
2013-06-11 03:35:00,59.0,53.0,29.92,WSW,237,0.0,-999.0,81,-99.99,,,0.00,weatherlink.com 1.10,2013-06-11 10:35:00,
2013-06-11 03:50:00,58.9,54.0,29.91,WSW,237,0.0,-999.0,84,-99.99,,,0.00,weatherlink.com 1.10,2013-06-11 10:50:00,
2013-06-11 04:05:00,58.6,53.0,29.91,WSW,237,0.0,-999.0,82,-99.99,,,0.00,weatherlink.com 1.10,2013-06-11 11:05:00,
2013-06-11 04:20:00,58.7,53.0,29.91,WSW,237,0.0,-999.0,82,-99.99,,,0.00,weatherlink.com 1.10,2013-06-11 11:20:00,
2013-06-11 04:35:00,58.7,54.0,29.91,WSW,237,0.0,-999.0,83,-99.99,,,0.00,weatherlink.com 1.10,2013-06-11 11:35:00,
2013-06-11 04:50:00,58.2,53.0,29.91,WSW,237,0.0,-999.0,84,-99.99,,,0.00,weatherlink.com 1.10,2013-06-11 11:50:00,
2013-06-11 05:05:00,58.1,54.0,29.91,WSW,237,0.0,-999.0,85,-99.99,,,0.00,weatherlink.com 1.10,2013-06-11 12:05:00,
2013-06-11 05:20:00,57.9,53.0,29.91,WSW,237,0.0,-999.0,84,-99.99,,,0.00,weatherlink.com 1.10,2013-06-11 12:20:00,
2013-06-11 05:35:00,57.9,54.0,29.91,WSW,237,0.0,-999.0,85,-99.99,,,0.00,weatherlink.com 1.10,2013-06-11 12:35:00,
2013-06-11 05:50:00,58.3,53.0,29.92,WSW,237,0.0,-999.0,82,-99.99,,,0.00,weatherlink.com 1.10,2013-06-11 12:50:00,
2013-06-11 06:05:00,58.5,53.0,29.93,WSW,237,0.0,-999.0,81,-99.99,,,0.00,weatherlink.com 1.10,2013-06-11 13:05:00,
2013-06-11 06:20:00,58.7,53.0,29.92,WSW,237,0.0,-999.0,81,-99.99,,,0.00,weatherlink.com 1.10,2013-06-11 13:20:00,
2013-06-11 06:35:00,59.2,53.0,29.93,WSW,237,0.0,-999.0,80,-99.99,,,0.00,weatherlink.com 1.10,2013-06-11 13:35:00,
2013-06-11 06:50:00,59.8,53.0,29.93,WSW,237,0.0,-999.0,79,-99.99,,,0.00,weatherlink.com 1.10,2013-06-11 13:50:00,
2013-06-11 07:05:00,60.0,53.0,29.93,SW,235,0.0,-999.0,79,-99.99,,,0.00,weatherlink.com 1.10,2013-06-11 14:05:00,
2013-06-11 07:20:00,60.5,54.0,29.92,SW,235,0.0,-999.0,79,-99.99,,,0.00,weatherlink.com 1.10,2013-06-11 14:20:00,
2013-06-11 07:35:00,61.5,55.0,29.93,SW,235,0.0,-999.0,78,-99.99,,,0.00,weatherlink.com 1.10,2013-06-11 14:35:00,
2013-06-11 07:50:00,63.0,55.0,29.93,SW,215,0.0,-999.0,75,-99.99,,,0.00,weatherlink.com 1.10,2013-06-11 14:50:00,
2013-06-11 08:05:00,64.0,55.0,29.93,SSW,212,0.0,-999.0,73,-99.99,,,0.00,weatherlink.com 1.10,2013-06-11 15:05:00,
2013-06-11 08:20:00,64.9,55.0,29.93,SSW,212,0.0,-999.0,71,-99.99,,,0.00,weatherlink.com 1.10,2013-06-11 15:20:00,
2013-06-11 08:35:00,65.8,56.0,29.94,SSW,212,0.0,-999.0,71,-99.99,,,0.00,weatherlink.com 1.10,2013-06-11 15:35:00,
2013-06-11 08:50:00,65.8,55.0,29.95,SSW,212,0.0,-999.0,68,-99.99,,,0.00,weatherlink.com 1.10,2013-06-11 15:50:00,
2013-06-11 09:05:00,66.7,55.0,29.95,SW,215,4.0,-999.0,67,-99.99,,,0.00,weatherlink.com 1.10,2013-06-11 16:05:00,
2013-06-11 09:20:00,67.8,56.0,29.95,SW,216,2.0,-999.0,65,-99.99,,,0.00,weatherlink.com 1.10,2013-06-11 16:20:00,
2013-06-11 09:35:00,69.0,55.0,29.96,SW,218,0.0,-999.0,62,-99.99,,,0.00,weatherlink.com 1.10,2013-06-11 16:35:00,
2013-06-11 09:50:00,70.3,56.0,29.96,SW,221,0.0,-999.0,61,-99.99,,,0.00,weatherlink.com 1.10,2013-06-11 16:50:00,
2013-06-11 10:05:00,71.3,56.0,29.95,SW,225,0.0,-999.0,58,-99.99,,,0.00,weatherlink.com 1.10,2013-06-11 17:05:00,
2013-06-11 10:20:00,72.4,56.0,29.96,SW,225,0.0,-999.0,56,-99.99,,,0.00,weatherlink.com 1.10,2013-06-11 17:20:00,
2013-06-11 10:35:00,73.9,55.0,29.96,SW,227,0.0,-999.0,52,-99.99,,,0.00,weatherlink.com 1.10,2013-06-11 17:35:00,
2013-06-11 10:50:00,74.9,55.0,29.96,SW,227,0.0,-999.0,51,-99.99,,,0.00,weatherlink.com 1.10,2013-06-11 17:50:00,
2013-06-11 11:05:00,75.9,56.0,29.96,SSW,194,2.0,-999.0,50,-99.99,,,0.00,weatherlink.com 1.10,2013-06-11 18:05:00,
2013-06-11 11:20:00,76.1,55.0,29.96,SSW,194,0.0,-999.0,49,-99.99,,,0.00,weatherlink.com 1.10,2013-06-11 18:20:00,
2013-06-11 11:35:00,77.8,56.0,29.96,SSW,192,0.0,-999.0,47,-99.99,,,0.00,weatherlink.com 1.10,2013-06-11 18:35:00,
2013-06-11 11:50:00,78.5,57.0,29.95,SSW,192,0.0,-999.0,48,-99.99,,,0.00,weatherlink.com 1.10,2013-06-11 18:50:00,
2013-06-11 12:05:00,79.4,56.0,29.95,SSW,209,5.0,-999.0,45,-99.99,,,0.00,weatherlink.com 1.10,2013-06-11 19:05:00,
2013-06-11 12:20:00,80.2,57.0,29.95,West,259,0.0,-999.0,45,-99.99,,,0.00,weatherlink.com 1.10,2013-06-11 19:20:00,
2013-06-11 12:35:00,82.1,56.0,29.94,WSW,247,1.0,-999.0,41,-99.99,,,0.00,weatherlink.com 1.10,2013-06-11 19:35:00,
2013-06-11 12:50:00,82.8,55.0,29.94,SW,235,0.0,-999.0,38,-99.99,,,0.00,weatherlink.com 1.10,2013-06-11 19:50:00,
2013-06-11 13:05:00,83.2,55.0,29.93,WSW,242,0.0,-999.0,38,-99.99,,,0.00,weatherlink.com 1.10,2013-06-11 20:05:00,
2013-06-11 13:20:00,83.8,55.0,29.93,South,178,6.0,-999.0,37,-99.99,,,0.00,weatherlink.com 1.10,2013-06-11 20:20:00,
2013-06-11 13:35:00,84.7,54.0,29.93,SW,217,5.0,-999.0,35,-99.99,,,0.00,weatherlink.com 1.10,2013-06-11 20:35:00,
2013-06-11 13:50:00,85.7,55.0,29.92,SW,221,1.0,-999.0,35,-99.99,,,0.00,weatherlink.com 1.10,2013-06-11 20:50:00,
2013-06-11 14:05:00,86.5,56.0,29.91,SSW,201,0.0,-999.0,35,-99.99,,,0.00,weatherlink.com 1.10,2013-06-11 21:05:00,
2013-06-11 14:20:00,86.9,55.0,29.91,West,263,0.0,-999.0,34,-99.99,,,0.00,weatherlink.com 1.10,2013-06-11 21:20:00,
2013-06-11 14:35:00,86.5,55.0,29.90,SSW,203,0.0,-999.0,34,-99.99,,,0.00,weatherlink.com 1.10,2013-06-11 21:35:00,
2013-06-11 14:50:00,86.8,56.0,29.90,WNW,292,1.0,-999.0,35,-99.99,,,0.00,weatherlink.com 1.10,2013-06-11 21:50:00,
2013-06-11 15:05:00,87.5,56.0,29.89,SW,227,0.0,-999.0,34,-99.99,,,0.00,weatherlink.com 1.10,2013-06-11 22:05:00,
2013-06-11 15:20:00,88.1,56.0,29.89,WNW,295,7.0,-999.0,33,-99.99,,,0.00,weatherlink.com 1.10,2013-06-11 22:20:00,
2013-06-11 15:35:00,88.3,56.0,29.89,WSW,242,1.0,-999.0,33,-99.99,,,0.00,weatherlink.com 1.10,2013-06-11 22:35:00,
2013-06-11 15:50:00,88.3,55.0,29.88,SW,225,1.0,-999.0,32,-99.99,,,0.00,weatherlink.com 1.10,2013-06-11 22:50:00,
2013-06-11 16:05:00,88.3,55.0,29.88,West,281,1.0,-999.0,32,-99.99,,,0.00,weatherlink.com 1.10,2013-06-11 23:05:00,
2013-06-11 16:20:00,89.3,56.0,29.87,West,280,2.0,-999.0,32,-99.99,,,0.00,weatherlink.com 1.10,2013-06-11 23:20:00,
2013-06-11 16:35:00,89.7,55.0,29.87,WNW,282,9.0,-999.0,31,-99.99,,,0.00,weatherlink.com 1.10,2013-06-11 23:35:00,
2013-06-11 16:50:00,89.0,56.0,29.86,WNW,290,2.0,-999.0,32,-99.99,,,0.00,weatherlink.com 1.10,2013-06-11 23:50:00,
2013-06-11 17:05:00,88.3,53.0,29.86,SSW,198,5.0,-999.0,30,-99.99,,,0.00,weatherlink.com 1.10,2013-06-12 00:05:00,
2013-06-11 17:20:00,88.5,53.0,29.86,West,279,0.0,-999.0,30,-99.99,,,0.00,weatherlink.com 1.10,2013-06-12 00:20:00,
2013-06-11 17:35:00,88.4,53.0,29.85,SW,221,0.0,-999.0,30,-99.99,,,0.00,weatherlink.com 1.10,2013-06-12 00:35:00,
2013-06-11 17:50:00,88.6,53.0,29.85,South,185,2.0,-999.0,30,-99.99,,,0.00,weatherlink.com 1.10,2013-06-12 00:50:00,
2013-06-11 18:05:00,87.5,52.0,29.85,SW,236,2.0,-999.0,29,-99.99,,,0.00,weatherlink.com 1.10,2013-06-12 01:05:00,
2013-06-11 18:20:00,86.5,50.0,29.85,SW,221,3.0,-999.0,28,-99.99,,,0.00,weatherlink.com 1.10,2013-06-12 01:20:00,
2013-06-11 18:35:00,86.0,49.0,29.84,SW,217,4.0,-999.0,28,-99.99,,,0.00,weatherlink.com 1.10,2013-06-12 01:35:00,
2013-06-11 18:50:00,85.6,50.0,29.85,South,184,0.0,-999.0,29,-99.99,,,0.00,weatherlink.com 1.10,2013-06-12 01:50:00,
2013-06-11 19:05:00,85.1,51.0,29.84,SSW,196,0.0,-999.0,31,-99.99,,,0.00,weatherlink.com 1.10,2013-06-12 02:05:00,
2013-06-11 19:20:00,84.6,52.0,29.84,SW,220,1.0,-999.0,32,-99.99,,,0.00,weatherlink.com 1.10,2013-06-12 02:20:00,
2013-06-11 19:35:00,84.1,52.0,29.84,SSW,199,4.0,-999.0,33,-99.99,,,0.00,weatherlink.com 1.10,2013-06-12 02:35:00,
2013-06-11 19:50:00,83.6,53.0,29.84,SSW,209,1.0,-999.0,35,-99.99,,,0.00,weatherlink.com 1.10,2013-06-12 02:50:00,
2013-06-11 20:05:00,83.1,53.0,29.84,SSW,209,3.0,-999.0,36,-99.99,,,0.00,weatherlink.com 1.10,2013-06-12 03:05:00,
2013-06-11 20:20:00,82.3,53.0,29.84,SSW,209,0.0,-999.0,36,-99.99,,,0.00,weatherlink.com 1.10,2013-06-12 03:20:00,
2013-06-11 20:35:00,81.5,53.0,29.83,SSW,209,0.0,-999.0,38,-99.99,,,0.00,weatherlink.com 1.10,2013-06-12 03:35:00,
2013-06-11 20:50:00,80.7,55.0,29.83,SSW,209,0.0,-999.0,41,-99.99,,,0.00,weatherlink.com 1.10,2013-06-12 03:50:00,
2013-06-11 21:05:00,79.9,54.0,29.84,SSW,206,0.0,-999.0,41,-99.99,,,0.00,weatherlink.com 1.10,2013-06-12 04:05:00,
2013-06-11 21:20:00,79.1,53.0,29.84,SSW,196,0.0,-999.0,40,-99.99,,,0.00,weatherlink.com 1.10,2013-06-12 04:20:00,
2013-06-11 21:35:00,78.4,51.0,29.85,SSW,195,0.0,-999.0,38,-99.99,,,0.00,weatherlink.com 1.10,2013-06-12 04:35:00,
2013-06-11 21:50:00,77.7,52.0,29.85,SSW,195,0.0,-999.0,41,-99.99,,,0.00,weatherlink.com 1.10,2013-06-12 04:50:00,
2013-06-11 22:05:00,76.8,53.0,29.85,SSW,195,0.0,-999.0,44,-99.99,,,0.00,weatherlink.com 1.10,2013-06-12 05:05:00,
2013-06-11 22:20:00,75.7,55.0,29.86,SSW,196,1.0,-999.0,49,-99.99,,,0.00,weatherlink.com 1.10,2013-06-12 05:20:00,
2013-06-11 22:35:00,75.0,56.0,29.86,South,184,6.0,-999.0,51,-99.99,,,0.00,weatherlink.com 1.10,2013-06-12 05:35:00,
2013-06-11 22:50:00,74.2,55.0,29.86,South,175,0.0,-999.0,51,-99.99,,,0.00,weatherlink.com 1.10,2013-06-12 05:50:00,
2013-06-11 23:05:00,73.5,55.0,29.86,South,173,0.0,-999.0,53,-99.99,,,0.00,weatherlink.com 1.10,2013-06-12 06:05:00,
2013-06-11 23:20:00,73.0,56.0,29.86,South,173,0.0,-999.0,55,-99.99,,,0.00,weatherlink.com 1.10,2013-06-12 06:20:00,
2013-06-11 23:35:00,72.4,56.0,29.86,South,171,1.0,-999.0,56,-99.99,,,0.00,weatherlink.com 1.10,2013-06-12 06:35:00,
2013-06-11 23:50:00,71.7,55.0,29.86,South,171,0.0,-999.0,57,-99.99,,,0.00,weatherlink.com 1.10,2013-06-12 06:50:00,